sensor_id;sensor_type;location;lat;lon;timestamp;temperature;humidity
28837;DHT22;50669;50.982;11.022;2023-04-25T00:00:20;18.90;75.80
28837;DHT22;50669;50.982;11.022;2023-04-25T00:02:51;18.90;75.80
28837;DHT22;50669;50.982;11.022;2023-04-25T00:05:17;19.00;75.90
28837;DHT22;50669;50.982;11.022;2023-04-25T00:07:42;18.90;75.90
28837;DHT22;50669;50.982;11.022;2023-04-25T00:10:11;18.90;75.80
28837;DHT22;50669;50.982;11.022;2023-04-25T00:12:39;18.90;75.80
28837;DHT22;50669;50.982;11.022;2023-04-25T00:15:06;18.90;75.90
28837;DHT22;50669;50.982;11.022;2023-04-25T00:17:34;18.90;75.90
28837;DHT22;50669;50.982;11.022;2023-04-25T00:20:01;18.90;75.90
28837;DHT22;50669;50.982;11.022;2023-04-25T00:22:30;18.90;75.90
28837;DHT22;50669;50.982;11.022;2023-04-25T00:24:56;18.90;75.90
28837;DHT22;50669;50.982;11.022;2023-04-25T00:27:25;18.90;75.90
28837;DHT22;50669;50.982;11.022;2023-04-25T00:29:53;18.90;75.90
28837;DHT22;50669;50.982;11.022;2023-04-25T00:32:19;18.90;75.90
28837;DHT22;50669;50.982;11.022;2023-04-25T00:34:44;18.90;75.90
28837;DHT22;50669;50.982;11.022;2023-04-25T00:37:10;18.90;75.90
28837;DHT22;50669;50.982;11.022;2023-04-25T00:39:37;18.90;75.90
28837;DHT22;50669;50.982;11.022;2023-04-25T00:42:02;18.90;75.90
28837;DHT22;50669;50.982;11.022;2023-04-25T00:44:29;18.90;75.80
28837;DHT22;50669;50.982;11.022;2023-04-25T00:46:58;18.90;75.90
28837;DHT22;50669;50.982;11.022;2023-04-25T00:49:24;18.90;75.90
28837;DHT22;50669;50.982;11.022;2023-04-25T00:51:52;18.90;76.00
28837;DHT22;50669;50.982;11.022;2023-04-25T00:54:18;18.90;75.90
28837;DHT22;50669;50.982;11.022;2023-04-25T00:56:44;18.90;76.00
28837;DHT22;50669;50.982;11.022;2023-04-25T00:59:13;18.90;76.00
28837;DHT22;50669;50.982;11.022;2023-04-25T01:01:39;18.90;75.90
28837;DHT22;50669;50.982;11.022;2023-04-25T01:04:06;18.90;76.00
28837;DHT22;50669;50.982;11.022;2023-04-25T01:06:34;18.90;75.90
28837;DHT22;50669;50.982;11.022;2023-04-25T01:09:04;18.90;76.00
28837;DHT22;50669;50.982;11.022;2023-04-25T01:11:30;18.90;76.00
28837;DHT22;50669;50.982;11.022;2023-04-25T01:13:56;18.90;76.00
28837;DHT22;50669;50.982;11.022;2023-04-25T01:16:22;18.90;76.00
28837;DHT22;50669;50.982;11.022;2023-04-25T01:18:49;18.90;76.00
28837;DHT22;50669;50.982;11.022;2023-04-25T01:21:16;18.90;75.90
28837;DHT22;50669;50.982;11.022;2023-04-25T01:23:42;18.90;76.00
28837;DHT22;50669;50.982;11.022;2023-04-25T01:26:10;18.90;76.00
28837;DHT22;50669;50.982;11.022;2023-04-25T01:28:36;18.80;76.00
28837;DHT22;50669;50.982;11.022;2023-04-25T01:31:05;18.90;76.00
28837;DHT22;50669;50.982;11.022;2023-04-25T01:33:31;18.80;75.80
28837;DHT22;50669;50.982;11.022;2023-04-25T01:35:57;18.80;76.00
28837;DHT22;50669;50.982;11.022;2023-04-25T01:38:25;18.90;76.00
28837;DHT22;50669;50.982;11.022;2023-04-25T01:40:53;18.80;76.00
28837;DHT22;50669;50.982;11.022;2023-04-25T01:43:22;18.80;76.00
28837;DHT22;50669;50.982;11.022;2023-04-25T01:45:49;18.80;75.90
28837;DHT22;50669;50.982;11.022;2023-04-25T01:48:15;18.90;76.00
28837;DHT22;50669;50.982;11.022;2023-04-25T01:50:41;18.80;76.00
28837;DHT22;50669;50.982;11.022;2023-04-25T01:53:09;18.80;76.00
28837;DHT22;50669;50.982;11.022;2023-04-25T01:55:35;18.80;76.00
28837;DHT22;50669;50.982;11.022;2023-04-25T01:58:02;18.80;76.00
28837;DHT22;50669;50.982;11.022;2023-04-25T02:00:28;18.80;76.00
28837;DHT22;50669;50.982;11.022;2023-04-25T02:02:58;18.80;76.00
28837;DHT22;50669;50.982;11.022;2023-04-25T02:05:23;18.80;76.00
28837;DHT22;50669;50.982;11.022;2023-04-25T02:07:49;18.80;76.00
28837;DHT22;50669;50.982;11.022;2023-04-25T02:10:17;18.80;76.00
28837;DHT22;50669;50.982;11.022;2023-04-25T02:12:43;18.80;76.00
28837;DHT22;50669;50.982;11.022;2023-04-25T02:15:11;18.80;76.00
28837;DHT22;50669;50.982;11.022;2023-04-25T02:17:39;18.80;76.00
28837;DHT22;50669;50.982;11.022;2023-04-25T02:20:07;18.80;76.00
28837;DHT22;50669;50.982;11.022;2023-04-25T02:22:33;18.80;76.80
28837;DHT22;50669;50.982;11.022;2023-04-25T02:24:59;18.80;76.10
28837;DHT22;50669;50.982;11.022;2023-04-25T02:27:25;18.80;76.00
28837;DHT22;50669;50.982;11.022;2023-04-25T02:29:50;18.80;76.10
28837;DHT22;50669;50.982;11.022;2023-04-25T02:32:16;18.80;76.10
28837;DHT22;50669;50.982;11.022;2023-04-25T02:34:44;18.80;76.10
28837;DHT22;50669;50.982;11.022;2023-04-25T02:37:13;18.80;76.10
28837;DHT22;50669;50.982;11.022;2023-04-25T02:39:39;18.80;76.10
28837;DHT22;50669;50.982;11.022;2023-04-25T02:42:07;18.80;76.10
28837;DHT22;50669;50.982;11.022;2023-04-25T02:44:32;18.80;76.20
28837;DHT22;50669;50.982;11.022;2023-04-25T02:47:00;18.80;76.00
28837;DHT22;50669;50.982;11.022;2023-04-25T02:49:28;18.80;76.20
28837;DHT22;50669;50.982;11.022;2023-04-25T02:51:54;18.80;76.20
28837;DHT22;50669;50.982;11.022;2023-04-25T02:54:22;18.80;76.20
28837;DHT22;50669;50.982;11.022;2023-04-25T02:56:50;18.80;76.20
28837;DHT22;50669;50.982;11.022;2023-04-25T02:59:15;18.80;76.00
28837;DHT22;50669;50.982;11.022;2023-04-25T03:01:41;18.80;76.20
28837;DHT22;50669;50.982;11.022;2023-04-25T03:04:07;18.80;76.10
28837;DHT22;50669;50.982;11.022;2023-04-25T03:06:33;18.80;76.20
28837;DHT22;50669;50.982;11.022;2023-04-25T03:08:59;18.80;76.20
28837;DHT22;50669;50.982;11.022;2023-04-25T03:11:25;18.80;76.20
28837;DHT22;50669;50.982;11.022;2023-04-25T03:13:51;18.80;76.20
28837;DHT22;50669;50.982;11.022;2023-04-25T03:16:17;18.80;76.20
28837;DHT22;50669;50.982;11.022;2023-04-25T03:18:42;18.80;76.20
28837;DHT22;50669;50.982;11.022;2023-04-25T03:21:10;18.80;76.20
28837;DHT22;50669;50.982;11.022;2023-04-25T03:23:36;18.80;76.20
28837;DHT22;50669;50.982;11.022;2023-04-25T03:26:01;18.80;76.20
28837;DHT22;50669;50.982;11.022;2023-04-25T03:28:29;18.80;77.00
28837;DHT22;50669;50.982;11.022;2023-04-25T03:30:58;18.80;76.30
28837;DHT22;50669;50.982;11.022;2023-04-25T03:33:23;18.80;76.20
28837;DHT22;50669;50.982;11.022;2023-04-25T03:35:51;18.80;76.30
28837;DHT22;50669;50.982;11.022;2023-04-25T03:38:19;18.80;76.30
28837;DHT22;50669;50.982;11.022;2023-04-25T03:40:45;18.80;76.30
28837;DHT22;50669;50.982;11.022;2023-04-25T03:43:11;18.80;76.30
28837;DHT22;50669;50.982;11.022;2023-04-25T03:45:36;18.80;76.30
28837;DHT22;50669;50.982;11.022;2023-04-25T03:48:02;18.70;76.30
28837;DHT22;50669;50.982;11.022;2023-04-25T03:50:28;18.80;76.30
28837;DHT22;50669;50.982;11.022;2023-04-25T03:52:56;18.70;76.20
28837;DHT22;50669;50.982;11.022;2023-04-25T03:55:21;18.70;76.30
28837;DHT22;50669;50.982;11.022;2023-04-25T03:57:47;18.80;76.30
28837;DHT22;50669;50.982;11.022;2023-04-25T04:00:15;18.80;76.40
28837;DHT22;50669;50.982;11.022;2023-04-25T04:02:41;18.80;76.30
28837;DHT22;50669;50.982;11.022;2023-04-25T04:05:10;18.80;76.40
28837;DHT22;50669;50.982;11.022;2023-04-25T04:07:35;18.80;76.30
28837;DHT22;50669;50.982;11.022;2023-04-25T04:10:06;18.80;76.20
28837;DHT22;50669;50.982;11.022;2023-04-25T04:12:33;18.80;76.30
28837;DHT22;50669;50.982;11.022;2023-04-25T04:14:58;18.80;76.30
28837;DHT22;50669;50.982;11.022;2023-04-25T04:17:26;18.70;76.30
28837;DHT22;50669;50.982;11.022;2023-04-25T04:19:54;18.80;76.30
28837;DHT22;50669;50.982;11.022;2023-04-25T04:22:20;18.80;76.30
28837;DHT22;50669;50.982;11.022;2023-04-25T04:24:46;18.70;76.30
28837;DHT22;50669;50.982;11.022;2023-04-25T04:27:13;18.70;76.30
28837;DHT22;50669;50.982;11.022;2023-04-25T04:29:39;18.70;76.30
28837;DHT22;50669;50.982;11.022;2023-04-25T04:32:04;18.70;76.30
28837;DHT22;50669;50.982;11.022;2023-04-25T04:34:33;18.70;76.20
28837;DHT22;50669;50.982;11.022;2023-04-25T04:36:59;18.70;76.30
28837;DHT22;50669;50.982;11.022;2023-04-25T04:39:25;18.70;76.30
28837;DHT22;50669;50.982;11.022;2023-04-25T04:41:53;18.70;77.10
28837;DHT22;50669;50.982;11.022;2023-04-25T04:44:19;18.70;76.30
28837;DHT22;50669;50.982;11.022;2023-04-25T04:46:45;18.70;76.30
28837;DHT22;50669;50.982;11.022;2023-04-25T04:49:12;18.70;76.30
28837;DHT22;50669;50.982;11.022;2023-04-25T04:51:39;18.70;76.30
28837;DHT22;50669;50.982;11.022;2023-04-25T04:54:05;18.70;76.30
28837;DHT22;50669;50.982;11.022;2023-04-25T04:56:32;18.70;76.30
28837;DHT22;50669;50.982;11.022;2023-04-25T04:58:58;18.70;76.30
28837;DHT22;50669;50.982;11.022;2023-04-25T05:01:25;18.70;76.30
28837;DHT22;50669;50.982;11.022;2023-04-25T05:03:51;18.70;76.30
28837;DHT22;50669;50.982;11.022;2023-04-25T05:06:25;18.70;76.30
28837;DHT22;50669;50.982;11.022;2023-04-25T05:08:51;18.70;76.20
28837;DHT22;50669;50.982;11.022;2023-04-25T05:11:20;18.70;76.30
28837;DHT22;50669;50.982;11.022;2023-04-25T05:13:46;18.70;76.30
28837;DHT22;50669;50.982;11.022;2023-04-25T05:16:12;18.70;76.30
28837;DHT22;50669;50.982;11.022;2023-04-25T05:18:39;18.70;76.30
28837;DHT22;50669;50.982;11.022;2023-04-25T05:21:05;18.70;76.20
28837;DHT22;50669;50.982;11.022;2023-04-25T05:23:33;18.80;77.00
28837;DHT22;50669;50.982;11.022;2023-04-25T05:26:00;18.70;76.20
28837;DHT22;50669;50.982;11.022;2023-04-25T05:28:25;18.70;76.20
28837;DHT22;50669;50.982;11.022;2023-04-25T05:30:51;18.70;76.10
28837;DHT22;50669;50.982;11.022;2023-04-25T05:33:17;18.70;76.20
28837;DHT22;50669;50.982;11.022;2023-04-25T05:35:43;18.70;76.30
28837;DHT22;50669;50.982;11.022;2023-04-25T05:38:12;18.70;76.20
28837;DHT22;50669;50.982;11.022;2023-04-25T05:40:40;18.70;76.20
28837;DHT22;50669;50.982;11.022;2023-04-25T05:43:08;18.70;76.20
28837;DHT22;50669;50.982;11.022;2023-04-25T05:45:34;18.80;76.30
28837;DHT22;50669;50.982;11.022;2023-04-25T05:47:59;18.80;76.30
28837;DHT22;50669;50.982;11.022;2023-04-25T05:50:25;18.70;76.20
28837;DHT22;50669;50.982;11.022;2023-04-25T05:52:51;18.80;76.20
28837;DHT22;50669;50.982;11.022;2023-04-25T05:55:16;18.80;76.20
28837;DHT22;50669;50.982;11.022;2023-04-25T05:57:42;18.80;76.20
28837;DHT22;50669;50.982;11.022;2023-04-25T06:00:12;18.80;76.20
28837;DHT22;50669;50.982;11.022;2023-04-25T06:02:37;18.80;76.20
28837;DHT22;50669;50.982;11.022;2023-04-25T06:05:06;18.80;76.20
28837;DHT22;50669;50.982;11.022;2023-04-25T06:07:31;18.80;76.20
28837;DHT22;50669;50.982;11.022;2023-04-25T06:09:57;18.80;76.20
28837;DHT22;50669;50.982;11.022;2023-04-25T06:12:23;18.70;76.20
28837;DHT22;50669;50.982;11.022;2023-04-25T06:14:49;18.80;76.20
28837;DHT22;50669;50.982;11.022;2023-04-25T06:17:14;18.80;76.20
28837;DHT22;50669;50.982;11.022;2023-04-25T06:19:40;18.80;76.20
28837;DHT22;50669;50.982;11.022;2023-04-25T06:22:06;18.80;76.20
28837;DHT22;50669;50.982;11.022;2023-04-25T06:24:32;18.80;76.20
28837;DHT22;50669;50.982;11.022;2023-04-25T06:26:58;18.80;76.30
28837;DHT22;50669;50.982;11.022;2023-04-25T06:29:29;18.80;76.20
28837;DHT22;50669;50.982;11.022;2023-04-25T06:31:54;18.80;76.30
28837;DHT22;50669;50.982;11.022;2023-04-25T06:34:20;18.80;76.20
28837;DHT22;50669;50.982;11.022;2023-04-25T06:36:46;18.80;76.20
28837;DHT22;50669;50.982;11.022;2023-04-25T06:39:12;18.80;76.20
28837;DHT22;50669;50.982;11.022;2023-04-25T06:41:37;18.80;76.20
28837;DHT22;50669;50.982;11.022;2023-04-25T06:44:03;18.80;76.20
28837;DHT22;50669;50.982;11.022;2023-04-25T06:46:28;18.80;76.20
28837;DHT22;50669;50.982;11.022;2023-04-25T06:48:54;18.80;76.20
28837;DHT22;50669;50.982;11.022;2023-04-25T06:51:20;18.80;76.20
28837;DHT22;50669;50.982;11.022;2023-04-25T06:53:49;18.80;76.20
28837;DHT22;50669;50.982;11.022;2023-04-25T06:56:15;18.80;76.20
28837;DHT22;50669;50.982;11.022;2023-04-25T06:58:44;18.80;76.20
28837;DHT22;50669;50.982;11.022;2023-04-25T07:01:10;18.80;76.20
28837;DHT22;50669;50.982;11.022;2023-04-25T07:03:35;18.80;76.20
28837;DHT22;50669;50.982;11.022;2023-04-25T07:06:02;18.80;76.20
28837;DHT22;50669;50.982;11.022;2023-04-25T07:08:29;18.80;76.20
28837;DHT22;50669;50.982;11.022;2023-04-25T07:10:57;18.80;76.20
28837;DHT22;50669;50.982;11.022;2023-04-25T07:13:22;18.80;76.20
28837;DHT22;50669;50.982;11.022;2023-04-25T07:15:48;18.80;76.20
28837;DHT22;50669;50.982;11.022;2023-04-25T07:18:14;18.80;76.20
28837;DHT22;50669;50.982;11.022;2023-04-25T07:20:40;18.80;76.20
28837;DHT22;50669;50.982;11.022;2023-04-25T07:23:06;18.80;76.30
28837;DHT22;50669;50.982;11.022;2023-04-25T07:25:32;18.80;76.20
28837;DHT22;50669;50.982;11.022;2023-04-25T07:27:57;18.80;76.20
28837;DHT22;50669;50.982;11.022;2023-04-25T07:30:25;18.80;76.20
28837;DHT22;50669;50.982;11.022;2023-04-25T07:32:51;18.80;76.20
28837;DHT22;50669;50.982;11.022;2023-04-25T07:35:17;18.80;76.20
28837;DHT22;50669;50.982;11.022;2023-04-25T07:37:43;18.80;76.20
28837;DHT22;50669;50.982;11.022;2023-04-25T07:40:09;18.80;76.20
28837;DHT22;50669;50.982;11.022;2023-04-25T07:42:37;18.80;76.20
28837;DHT22;50669;50.982;11.022;2023-04-25T07:45:02;18.80;76.20
28837;DHT22;50669;50.982;11.022;2023-04-25T07:47:31;18.80;76.20
28837;DHT22;50669;50.982;11.022;2023-04-25T07:49:56;18.80;76.20
28837;DHT22;50669;50.982;11.022;2023-04-25T07:52:23;18.80;76.20
28837;DHT22;50669;50.982;11.022;2023-04-25T07:54:48;18.80;76.20
28837;DHT22;50669;50.982;11.022;2023-04-25T07:57:14;18.80;76.10
28837;DHT22;50669;50.982;11.022;2023-04-25T07:59:40;18.80;76.20
28837;DHT22;50669;50.982;11.022;2023-04-25T08:02:06;18.80;76.20
28837;DHT22;50669;50.982;11.022;2023-04-25T08:04:31;18.80;76.10
28837;DHT22;50669;50.982;11.022;2023-04-25T08:06:57;18.80;76.20
28837;DHT22;50669;50.982;11.022;2023-04-25T08:09:22;18.80;76.20
28837;DHT22;50669;50.982;11.022;2023-04-25T08:11:48;18.80;76.10
28837;DHT22;50669;50.982;11.022;2023-04-25T08:14:17;18.80;76.10
28837;DHT22;50669;50.982;11.022;2023-04-25T08:16:42;18.80;76.20
28837;DHT22;50669;50.982;11.022;2023-04-25T08:19:10;18.80;76.20
28837;DHT22;50669;50.982;11.022;2023-04-25T08:21:38;18.80;76.20
28837;DHT22;50669;50.982;11.022;2023-04-25T08:24:04;18.80;76.20
28837;DHT22;50669;50.982;11.022;2023-04-25T08:26:32;18.80;76.20
28837;DHT22;50669;50.982;11.022;2023-04-25T08:28:58;18.80;76.20
28837;DHT22;50669;50.982;11.022;2023-04-25T08:31:25;18.80;77.00
28837;DHT22;50669;50.982;11.022;2023-04-25T08:33:51;18.80;76.20
28837;DHT22;50669;50.982;11.022;2023-04-25T08:36:19;18.80;76.20
28837;DHT22;50669;50.982;11.022;2023-04-25T08:38:47;18.80;76.10
28837;DHT22;50669;50.982;11.022;2023-04-25T08:41:16;18.80;76.10
28837;DHT22;50669;50.982;11.022;2023-04-25T08:43:48;18.80;76.10
28837;DHT22;50669;50.982;11.022;2023-04-25T08:46:18;18.80;76.10
28837;DHT22;50669;50.982;11.022;2023-04-25T08:48:45;18.80;76.10
28837;DHT22;50669;50.982;11.022;2023-04-25T08:51:17;18.80;76.00
28837;DHT22;50669;50.982;11.022;2023-04-25T08:53:51;18.80;76.00
28837;DHT22;50669;50.982;11.022;2023-04-25T08:56:17;18.80;76.00
28837;DHT22;50669;50.982;11.022;2023-04-25T08:58:44;18.80;76.00
28837;DHT22;50669;50.982;11.022;2023-04-25T09:01:11;18.80;76.00
28837;DHT22;50669;50.982;11.022;2023-04-25T09:03:37;18.80;75.90
28837;DHT22;50669;50.982;11.022;2023-04-25T09:06:03;18.80;75.90
28837;DHT22;50669;50.982;11.022;2023-04-25T09:08:29;18.90;76.00
28837;DHT22;50669;50.982;11.022;2023-04-25T09:10:57;18.90;75.90
28837;DHT22;50669;50.982;11.022;2023-04-25T09:13:28;18.90;75.90
28837;DHT22;50669;50.982;11.022;2023-04-25T09:15:57;18.90;75.90
28837;DHT22;50669;50.982;11.022;2023-04-25T09:18:31;18.80;75.80
28837;DHT22;50669;50.982;11.022;2023-04-25T09:21:17;18.80;75.80
28837;DHT22;50669;50.982;11.022;2023-04-25T09:23:48;18.90;75.90
28837;DHT22;50669;50.982;11.022;2023-04-25T09:26:18;18.90;76.60
28837;DHT22;50669;50.982;11.022;2023-04-25T09:28:47;18.90;75.80
28837;DHT22;50669;50.982;11.022;2023-04-25T09:31:24;18.90;75.80
28837;DHT22;50669;50.982;11.022;2023-04-25T09:33:52;18.90;75.90
28837;DHT22;50669;50.982;11.022;2023-04-25T09:36:29;18.80;75.80
28837;DHT22;50669;50.982;11.022;2023-04-25T09:38:57;18.80;75.80
28837;DHT22;50669;50.982;11.022;2023-04-25T09:41:25;18.80;75.80
28837;DHT22;50669;50.982;11.022;2023-04-25T09:43:50;18.90;75.80
28837;DHT22;50669;50.982;11.022;2023-04-25T09:46:16;18.80;75.80
28837;DHT22;50669;50.982;11.022;2023-04-25T09:48:50;18.80;75.80
28837;DHT22;50669;50.982;11.022;2023-04-25T09:51:16;18.90;75.90
28837;DHT22;50669;50.982;11.022;2023-04-25T09:53:48;18.90;75.80
28837;DHT22;50669;50.982;11.022;2023-04-25T09:56:17;18.80;75.80
28837;DHT22;50669;50.982;11.022;2023-04-25T09:58:47;18.80;75.80
28837;DHT22;50669;50.982;11.022;2023-04-25T10:01:16;18.90;75.90
28837;DHT22;50669;50.982;11.022;2023-04-25T10:03:46;18.90;75.90
28837;DHT22;50669;50.982;11.022;2023-04-25T10:06:19;18.80;75.80
28837;DHT22;50669;50.982;11.022;2023-04-25T10:08:50;18.90;75.80
28837;DHT22;50669;50.982;11.022;2023-04-25T10:11:17;18.80;75.80
28837;DHT22;50669;50.982;11.022;2023-04-25T10:13:46;18.80;75.80
28837;DHT22;50669;50.982;11.022;2023-04-25T10:16:13;18.90;75.90
28837;DHT22;50669;50.982;11.022;2023-04-25T10:18:38;18.90;75.70
28837;DHT22;50669;50.982;11.022;2023-04-25T10:21:06;18.80;75.70
28837;DHT22;50669;50.982;11.022;2023-04-25T10:23:34;18.90;75.80
28837;DHT22;50669;50.982;11.022;2023-04-25T10:26:02;18.80;75.70
28837;DHT22;50669;50.982;11.022;2023-04-25T10:28:28;18.90;75.80
28837;DHT22;50669;50.982;11.022;2023-04-25T10:31:01;18.80;75.60
28837;DHT22;50669;50.982;11.022;2023-04-25T10:33:42;18.90;75.70
28837;DHT22;50669;50.982;11.022;2023-04-25T10:36:12;18.90;75.70
28837;DHT22;50669;50.982;11.022;2023-04-25T10:38:39;18.90;75.70
28837;DHT22;50669;50.982;11.022;2023-04-25T10:41:07;18.90;75.80
28837;DHT22;50669;50.982;11.022;2023-04-25T10:43:46;18.80;75.70
28837;DHT22;50669;50.982;11.022;2023-04-25T10:46:28;18.90;75.70
28837;DHT22;50669;50.982;11.022;2023-04-25T10:48:58;18.90;75.70
28837;DHT22;50669;50.982;11.022;2023-04-25T10:51:31;18.90;75.70
28837;DHT22;50669;50.982;11.022;2023-04-25T10:54:03;18.90;75.60
28837;DHT22;50669;50.982;11.022;2023-04-25T10:56:33;18.90;75.70
28837;DHT22;50669;50.982;11.022;2023-04-25T11:01:43;18.90;75.60
28837;DHT22;50669;50.982;11.022;2023-04-25T11:04:29;18.90;75.60
28837;DHT22;50669;50.982;11.022;2023-04-25T11:09:35;18.90;75.60
28837;DHT22;50669;50.982;11.022;2023-04-25T11:12:04;18.90;75.60
28837;DHT22;50669;50.982;11.022;2023-04-25T11:14:32;18.90;75.50
28837;DHT22;50669;50.982;11.022;2023-04-25T11:16:59;18.90;75.50
28837;DHT22;50669;50.982;11.022;2023-04-25T11:19:25;18.90;75.50
28837;DHT22;50669;50.982;11.022;2023-04-25T11:21:55;18.90;75.40
28837;DHT22;50669;50.982;11.022;2023-04-25T11:24:28;19.00;75.40
28837;DHT22;50669;50.982;11.022;2023-04-25T11:27:01;19.00;75.40
28837;DHT22;50669;50.982;11.022;2023-04-25T11:29:33;19.00;75.40
28837;DHT22;50669;50.982;11.022;2023-04-25T11:31:59;19.00;75.40
28837;DHT22;50669;50.982;11.022;2023-04-25T11:34:27;19.00;75.40
28837;DHT22;50669;50.982;11.022;2023-04-25T11:36:56;19.00;75.40
28837;DHT22;50669;50.982;11.022;2023-04-25T11:39:21;19.00;75.30
28837;DHT22;50669;50.982;11.022;2023-04-25T11:41:48;19.00;75.30
28837;DHT22;50669;50.982;11.022;2023-04-25T11:44:19;19.00;75.30
28837;DHT22;50669;50.982;11.022;2023-04-25T11:46:48;19.00;75.20
28837;DHT22;50669;50.982;11.022;2023-04-25T11:49:16;19.00;75.40
28837;DHT22;50669;50.982;11.022;2023-04-25T11:51:47;19.00;75.30
28837;DHT22;50669;50.982;11.022;2023-04-25T11:54:14;19.00;75.30
28837;DHT22;50669;50.982;11.022;2023-04-25T11:56:44;19.00;75.30
28837;DHT22;50669;50.982;11.022;2023-04-25T11:59:11;19.00;75.30
28837;DHT22;50669;50.982;11.022;2023-04-25T12:01:40;19.00;75.30
28837;DHT22;50669;50.982;11.022;2023-04-25T12:04:21;19.00;75.30
28837;DHT22;50669;50.982;11.022;2023-04-25T12:06:49;19.00;75.30
28837;DHT22;50669;50.982;11.022;2023-04-25T12:09:20;19.10;75.30
28837;DHT22;50669;50.982;11.022;2023-04-25T12:11:53;19.10;75.30
28837;DHT22;50669;50.982;11.022;2023-04-25T12:14:27;19.10;75.20
28837;DHT22;50669;50.982;11.022;2023-04-25T12:16:55;19.10;75.80
28837;DHT22;50669;50.982;11.022;2023-04-25T12:19:26;19.10;75.00
28837;DHT22;50669;50.982;11.022;2023-04-25T12:21:54;19.10;75.00
28837;DHT22;50669;50.982;11.022;2023-04-25T12:24:24;19.10;75.00
28837;DHT22;50669;50.982;11.022;2023-04-25T12:26:58;19.10;75.10
28837;DHT22;50669;50.982;11.022;2023-04-25T12:29:27;19.10;75.20
28837;DHT22;50669;50.982;11.022;2023-04-25T12:31:56;19.10;75.20
28837;DHT22;50669;50.982;11.022;2023-04-25T12:34:24;19.10;75.30
28837;DHT22;50669;50.982;11.022;2023-04-25T12:36:52;19.00;75.20
28837;DHT22;50669;50.982;11.022;2023-04-25T12:39:24;19.00;75.30
28837;DHT22;50669;50.982;11.022;2023-04-25T12:41:53;19.00;75.20
28837;DHT22;50669;50.982;11.022;2023-04-25T12:44:20;19.00;75.20
28837;DHT22;50669;50.982;11.022;2023-04-25T12:46:48;19.00;75.20
28837;DHT22;50669;50.982;11.022;2023-04-25T12:49:14;19.10;75.20
28837;DHT22;50669;50.982;11.022;2023-04-25T12:51:40;19.10;75.20
28837;DHT22;50669;50.982;11.022;2023-04-25T12:54:08;19.10;75.10
28837;DHT22;50669;50.982;11.022;2023-04-25T12:56:34;19.10;75.00
28837;DHT22;50669;50.982;11.022;2023-04-25T12:59:03;19.10;75.80
28837;DHT22;50669;50.982;11.022;2023-04-25T13:01:29;19.10;75.00
28837;DHT22;50669;50.982;11.022;2023-04-25T13:03:54;19.10;75.00
28837;DHT22;50669;50.982;11.022;2023-04-25T13:06:21;19.20;75.00
28837;DHT22;50669;50.982;11.022;2023-04-25T13:08:47;19.20;75.00
28837;DHT22;50669;50.982;11.022;2023-04-25T13:11:13;19.20;75.00
28837;DHT22;50669;50.982;11.022;2023-04-25T13:13:40;19.20;74.90
28837;DHT22;50669;50.982;11.022;2023-04-25T13:16:09;19.20;74.90
28837;DHT22;50669;50.982;11.022;2023-04-25T13:18:35;19.20;74.90
28837;DHT22;50669;50.982;11.022;2023-04-25T13:21:01;19.20;74.90
28837;DHT22;50669;50.982;11.022;2023-04-25T13:23:28;19.20;74.90
28837;DHT22;50669;50.982;11.022;2023-04-25T13:25:58;19.20;74.90
28837;DHT22;50669;50.982;11.022;2023-04-25T13:28:25;19.20;74.80
28837;DHT22;50669;50.982;11.022;2023-04-25T13:30:53;19.20;74.90
28837;DHT22;50669;50.982;11.022;2023-04-25T13:33:19;19.20;74.90
28837;DHT22;50669;50.982;11.022;2023-04-25T13:35:51;19.20;74.90
28837;DHT22;50669;50.982;11.022;2023-04-25T13:38:22;19.20;74.90
28837;DHT22;50669;50.982;11.022;2023-04-25T13:40:49;19.20;75.00
28837;DHT22;50669;50.982;11.022;2023-04-25T13:43:15;19.20;75.00
28837;DHT22;50669;50.982;11.022;2023-04-25T13:45:43;19.20;75.10
28837;DHT22;50669;50.982;11.022;2023-04-25T13:48:11;19.20;75.00
28837;DHT22;50669;50.982;11.022;2023-04-25T13:50:37;19.10;75.00
28837;DHT22;50669;50.982;11.022;2023-04-25T13:53:04;19.10;75.00
28837;DHT22;50669;50.982;11.022;2023-04-25T13:55:31;19.10;75.10
28837;DHT22;50669;50.982;11.022;2023-04-25T13:57:58;19.10;75.00
28837;DHT22;50669;50.982;11.022;2023-04-25T14:00:24;19.10;75.10
28837;DHT22;50669;50.982;11.022;2023-04-25T14:02:52;19.20;75.10
28837;DHT22;50669;50.982;11.022;2023-04-25T14:05:21;19.20;75.00
28837;DHT22;50669;50.982;11.022;2023-04-25T14:07:46;19.20;75.00
28837;DHT22;50669;50.982;11.022;2023-04-25T14:10:12;19.20;75.00
28837;DHT22;50669;50.982;11.022;2023-04-25T14:12:43;19.20;74.90
28837;DHT22;50669;50.982;11.022;2023-04-25T14:15:09;19.20;75.00
28837;DHT22;50669;50.982;11.022;2023-04-25T14:17:37;19.20;75.00
28837;DHT22;50669;50.982;11.022;2023-04-25T14:20:06;19.20;75.00
28837;DHT22;50669;50.982;11.022;2023-04-25T14:22:33;19.20;75.00
28837;DHT22;50669;50.982;11.022;2023-04-25T14:25:00;19.20;75.10
28837;DHT22;50669;50.982;11.022;2023-04-25T14:27:26;19.20;75.10
28837;DHT22;50669;50.982;11.022;2023-04-25T14:29:53;19.20;75.10
28837;DHT22;50669;50.982;11.022;2023-04-25T14:32:21;19.20;75.10
28837;DHT22;50669;50.982;11.022;2023-04-25T14:34:47;19.20;75.10
28837;DHT22;50669;50.982;11.022;2023-04-25T14:37:15;19.30;75.10
28837;DHT22;50669;50.982;11.022;2023-04-25T14:39:41;19.20;75.00
28837;DHT22;50669;50.982;11.022;2023-04-25T14:42:06;19.30;75.10
28837;DHT22;50669;50.982;11.022;2023-04-25T14:44:32;19.30;75.10
28837;DHT22;50669;50.982;11.022;2023-04-25T14:46:57;19.30;75.20
28837;DHT22;50669;50.982;11.022;2023-04-25T14:49:23;19.30;75.20
28837;DHT22;50669;50.982;11.022;2023-04-25T14:51:49;19.30;75.20
28837;DHT22;50669;50.982;11.022;2023-04-25T14:54:15;19.30;75.20
28837;DHT22;50669;50.982;11.022;2023-04-25T14:56:45;19.30;75.10
28837;DHT22;50669;50.982;11.022;2023-04-25T14:59:11;19.30;75.10
28837;DHT22;50669;50.982;11.022;2023-04-25T15:01:41;19.30;75.20
28837;DHT22;50669;50.982;11.022;2023-04-25T15:04:07;19.30;75.20
28837;DHT22;50669;50.982;11.022;2023-04-25T15:06:33;19.30;75.20
28837;DHT22;50669;50.982;11.022;2023-04-25T15:08:59;19.30;75.20
28837;DHT22;50669;50.982;11.022;2023-04-25T15:11:25;19.30;75.20
28837;DHT22;50669;50.982;11.022;2023-04-25T15:13:50;19.30;75.20
28837;DHT22;50669;50.982;11.022;2023-04-25T15:16:16;19.30;75.30
28837;DHT22;50669;50.982;11.022;2023-04-25T15:18:42;19.30;75.30
28837;DHT22;50669;50.982;11.022;2023-04-25T15:21:08;19.30;75.30